Time;durP1;ratioP1;P1;durP2;ratioP2;P2;SDS_P1;SDS_P2;PMS_P1;PMS_P2;Temp;Humidity;BMP_temperature;BMP_pressure;BME280_temperature;BME280_humidity;BME280_pressure;Samples;Min_cycle;Max_cycle;Signal;HPM_P1;HPM_P2
2021/03/24 01:50:30;;;;;;;13.35;8.30;;;;;;;2.34;100.00;100904.56;5874042;23;20062;-72
2021/03/24 01:53:17;;;;;;;11.23;8.40;;;;;;;2.30;100.00;100888.97;5028304;28;20116;-74
2021/03/24 01:56:05;;;;;;;10.93;7.50;;;;;;;2.33;100.00;100884.72;5033602;28;20043;-74
2021/03/24 01:58:51;;;;;;;11.98;8.30;;;;;;;2.52;100.00;100889.38;5037713;28;20041;-74
2021/03/24 02:01:37;;;;;;;12.10;8.48;;;;;;;2.60;100.00;100897.25;5023772;28;20033;-73
2021/03/24 02:04:23;;;;;;;11.60;8.43;;;;;;;2.24;100.00;100896.59;5037471;28;20048;-75
2021/03/24 02:07:14;;;;;;;11.73;8.70;;;;;;;2.77;100.00;100909.63;5036851;28;20105;-74
2021/03/24 02:10:02;;;;;;;11.90;8.40;;;;;;;2.44;100.00;100914.22;5037218;28;20029;-73
2021/03/24 02:12:54;;;;;;;12.60;8.77;;;;;;;2.56;100.00;100914.44;5035636;28;20175;-73
2021/03/24 02:16:03;;;;;;;11.95;9.15;;;;;;;2.57;100.00;100925.69;5036417;28;20056;-73
2021/03/24 02:18:51;;;;;;;11.75;8.43;;;;;;;2.60;100.00;100928.28;5036396;28;20454;-72
2021/03/24 02:21:40;;;;;;;11.60;8.25;;;;;;;2.30;100.00;100932.91;5036258;28;20091;-75
2021/03/24 02:24:38;;;;;;;11.65;8.18;;;;;;;2.50;100.00;100937.63;5036270;28;20040;-73
2021/03/24 02:27:33;;;;;;;10.75;7.10;;;;;;;2.14;100.00;100939.50;5037375;28;20056;-73
2021/03/24 02:30:30;;;;;;;11.75;7.85;;;;;;;2.45;100.00;100928.88;5039439;28;20246;-73
2021/03/24 02:33:24;;;;;;;24.88;15.02;;;;;;;2.50;100.00;100927.28;5043785;28;20033;-73
2021/03/24 02:36:14;;;;;;;12.05;8.02;;;;;;;2.70;100.00;100931.06;5040232;28;20022;-73
2021/03/24 02:39:04;;;;;;;10.88;7.68;;;;;;;2.67;100.00;100924.97;5038508;28;20028;-73
2021/03/24 02:41:52;;;;;;;10.35;7.00;;;;;;;2.48;100.00;100934.13;5025481;28;20124;-73
2021/03/24 02:44:40;;;;;;;10.30;7.07;;;;;;;2.52;100.00;100942.78;5037235;28;20025;-73
2021/03/24 02:47:26;;;;;;;10.82;6.60;;;;;;;2.24;100.00;100954.34;5036075;28;20041;-73
2021/03/24 02:50:13;;;;;;;8.73;6.03;;;;;;;2.28;100.00;100957.84;5036760;28;20520;-73
2021/03/24 02:53:00;;;;;;;9.18;6.45;;;;;;;2.37;100.00;100955.47;5036834;28;20044;-73
2021/03/24 02:55:46;;;;;;;10.98;7.00;;;;;;;2.38;100.00;100947.75;5036333;28;20148;-73
2021/03/24 02:58:32;;;;;;;8.23;6.20;;;;;;;2.64;100.00;100954.25;5036669;28;20116;-73
2021/03/24 03:01:23;;;;;;;10.20;5.97;;;;;;;2.56;100.00;100955.81;5036755;28;20021;-73
2021/03/24 03:04:46;;;;;;;9.38;6.00;;;;;;;2.58;100.00;100959.28;5036503;28;20339;-73
2021/03/24 03:07:38;;;;;;;7.50;5.30;;;;;;;2.42;100.00;100964.16;5020741;28;20022;-72
2021/03/24 03:10:45;;;;;;;7.47;5.43;;;;;;;2.61;100.00;100974.03;5035293;28;20211;-72
2021/03/24 03:13:36;;;;;;;6.50;4.70;;;;;;;2.47;100.00;100980.63;5037153;28;20018;-74
2021/03/24 03:16:29;;;;;;;6.38;3.90;;;;;;;2.31;100.00;100999.28;5037261;28;20037;-73
2021/03/24 03:19:22;;;;;;;3.72;2.72;;;;;;;1.95;100.00;101001.97;5037023;28;20049;-74
2021/03/24 03:22:31;;;;;;;4.40;3.10;;;;;;;2.14;100.00;101008.41;5021693;28;20117;-73
2021/03/24 03:25:26;;;;;;;4.88;3.33;;;;;;;2.58;100.00;101012.75;5035766;28;20331;-73
2021/03/24 03:28:16;;;;;;;5.13;3.42;;;;;;;2.37;100.00;101018.34;5036158;28;20040;-73
2021/03/24 03:31:04;;;;;;;5.40;2.60;;;;;;;1.98;100.00;101014.09;5020883;28;20029;-73
2021/03/24 03:33:52;;;;;;;4.45;2.70;;;;;;;1.88;100.00;101010.44;5035119;28;20465;-73
2021/03/24 03:36:41;;;;;;;3.63;2.60;;;;;;;2.18;100.00;101024.03;5021070;28;20095;-73
2021/03/24 03:39:29;;;;;;;4.20;2.80;;;;;;;2.36;100.00;101010.56;5035565;28;20030;-73
2021/03/24 03:42:15;;;;;;;6.18;3.60;;;;;;;2.39;100.00;101005.47;5020724;28;20441;-73
2021/03/24 03:45:02;;;;;;;6.20;3.72;;;;;;;2.78;100.00;100990.72;5035121;28;20044;-73
2021/03/24 03:47:48;;;;;;;4.97;3.45;;;;;;;2.57;100.00;100988.59;5034697;28;20025;-73
2021/03/24 03:50:34;;;;;;;4.55;3.20;;;;;;;2.73;100.00;100990.63;5035262;28;20438;-73
2021/03/24 03:53:44;;;;;;;5.18;3.10;;;;;;;2.91;100.00;100995.25;5020825;28;20065;-72
2021/03/24 03:56:36;;;;;;;5.50;3.60;;;;;;;2.78;100.00;100993.28;5021213;28;20033;-73
2021/03/24 04:00:02;;;;;;;8.65;3.97;;;;;;;3.19;100.00;100993.16;5034698;28;20095;-72
2021/03/24 04:02:59;;;;;;;5.25;3.80;;;;;;;3.17;100.00;100999.16;4940596;29;20480;-73
2021/03/24 04:05:50;;;;;;;8.00;3.67;;;;;;;3.33;100.00;101004.59;5038517;28;20040;-73
2021/03/24 04:08:36;;;;;;;6.00;3.80;;;;;;;2.94;100.00;100997.91;5034767;28;20028;-73
2021/03/24 04:11:24;;;;;;;6.63;3.75;;;;;;;2.61;100.00;100998.16;5035157;28;20030;-73
2021/03/24 04:14:18;;;;;;;6.40;3.58;;;;;;;2.91;100.00;101011.66;5021329;28;20030;-74
2021/03/24 04:17:07;;;;;;;7.75;4.00;;;;;;;3.12;100.00;101014.63;5035092;28;20425;-73
2021/03/24 04:19:55;;;;;;;5.45;3.53;;;;;;;3.03;100.00;101016.16;5034468;28;20025;-73
2021/03/24 04:22:42;;;;;;;5.93;4.00;;;;;;;2.87;100.00;101017.63;5034208;28;20713;-73
2021/03/24 04:25:40;;;;;;;5.75;4.07;;;;;;;2.98;100.00;101023.84;5030660;28;20057;-73
2021/03/24 04:28:31;;;;;;;6.05;4.22;;;;;;;2.81;100.00;101022.66;5038214;28;20083;-73
2021/03/24 04:31:21;;;;;;;8.10;4.38;;;;;;;2.98;100.00;101020.41;5022926;28;20040;-73
2021/03/24 04:34:07;;;;;;;7.53;5.03;;;;;;;2.92;100.00;101018.56;5035667;28;20095;-74
2021/03/24 04:37:01;;;;;;;9.73;5.50;;;;;;;2.97;100.00;101024.69;5035498;28;20091;-73
2021/03/24 04:40:02;;;;;;;6.60;4.43;;;;;;;2.89;100.00;101026.25;5035371;28;20025;-74
2021/03/24 07:22:47;;;;;;;5.53;2.70;;;;;;;5.27;99.72;101189.69;4956400;28;20047;-77
2021/03/24 07:25:44;;;;;;;3.60;2.47;;;;;;;5.47;96.75;101203.78;4958292;29;20221;-74
2021/03/24 07:28:41;;;;;;;7.75;3.83;;;;;;;4.98;91.67;101204.06;4958319;29;20475;-75
2021/03/24 07:31:29;;;;;;;9.20;4.57;;;;;;;5.38;91.91;101214.09;4943824;29;20027;-72
2021/03/24 07:34:18;;;;;;;6.63;2.72;;;;;;;4.86;90.06;101214.28;4944058;29;20054;-74
2021/03/24 07:37:28;;;;;;;6.68;3.00;;;;;;;5.19;92.96;101213.84;4943320;29;20031;-75
2021/03/24 07:40:40;;;;;;;9.00;3.60;;;;;;;5.67;91.94;101217.00;4957871;28;20063;-74
2021/03/24 07:44:09;;;;;;;;;;;;;;;;;;;;;
2021/03/24 07:47:05;;;;;;;4.82;2.70;;;;;;;4.92;89.77;101218.69;4957773;29;20170;-74
2021/03/24 07:50:04;;;;;;;5.55;2.60;;;;;;;5.79;87.73;101216.25;4958232;28;20069;-74
2021/03/24 07:53:20;;;;;;;5.88;2.90;;;;;;;5.33;80.67;101226.16;4943320;29;20067;-74
2021/03/24 07:56:28;;;;;;;4.28;2.70;;;;;;;5.46;87.15;101216.75;4957247;28;20055;-75
2021/03/24 07:59:32;;;;;;;7.18;3.38;;;;;;;6.10;82.27;101226.97;4957763;28;20038;-76
2021/03/24 08:02:46;;;;;;;8.23;4.25;;;;;;;5.94;83.28;101219.03;4958813;28;20043;-73
2021/03/24 08:06:08;;;;;;;5.13;2.47;;;;;;;6.07;81.98;101239.09;4943280;29;20348;-75
2021/03/24 08:09:18;;;;;;;3.65;2.15;;;;;;;5.76;77.65;101221.41;4925123;29;20066;-75
2021/03/24 08:12:19;;;;;;;4.57;2.47;;;;;;;5.48;76.25;101223.72;4957077;28;20058;-75
2021/03/24 08:15:07;;;;;;;3.80;2.38;;;;;;;6.10;73.27;101223.50;4957636;29;20027;-73
2021/03/24 08:18:08;;;;;;;4.72;2.63;;;;;;;6.74;74.63;101210.94;4957469;29;20348;-75
2021/03/24 08:20:57;;;;;;;5.05;2.33;;;;;;;6.93;73.81;101212.81;4941997;29;20043;-74
2021/03/24 08:24:20;;;;;;;5.63;2.92;;;;;;;7.51;72.83;101209.53;4943238;29;20424;-76
2021/03/24 08:27:17;;;;;;;3.72;2.22;;;;;;;7.93;62.70;101217.47;4956407;29;20042;-73
2021/03/24 08:30:25;;;;;;;3.60;2.00;;;;;;;6.31;61.73;101228.88;4942793;29;20042;-75
2021/03/24 08:33:34;;;;;;;3.90;1.70;;;;;;;5.93;57.04;101215.53;4941698;29;20130;-75
2021/03/24 08:36:34;;;;;;;3.45;1.83;;;;;;;5.72;59.66;101211.84;4957404;28;20035;-75
2021/03/24 08:39:49;;;;;;;5.18;2.72;;;;;;;5.61;58.50;101208.25;4956606;29;20375;-76
2021/03/24 08:43:12;;;;;;;2.33;1.40;;;;;;;5.75;58.92;101209.28;4942525;29;20035;-74
2021/03/24 08:46:01;;;;;;;5.07;1.95;;;;;;;6.19;58.31;101203.63;4956028;29;20019;-73
2021/03/24 08:48:56;;;;;;;5.05;1.92;;;;;;;7.09;55.81;101203.31;4942069;29;20015;-76
2021/03/24 08:51:51;;;;;;;2.05;1.70;;;;;;;6.89;54.70;101199.75;4942073;28;20030;-75
2021/03/24 08:54:51;;;;;;;5.85;2.65;;;;;;;7.12;55.62;101192.91;4956543;29;20085;-75
2021/03/24 08:57:52;;;;;;;5.93;2.90;;;;;;;7.40;55.60;101193.00;4942339;29;20078;-74
2021/03/24 09:00:47;;;;;;;9.63;5.18;;;;;;;6.99;57.61;101193.72;4941927;29;20031;-74
2021/03/24 09:04:15;;;;;;;3.83;2.50;;;;;;;6.74;60.27;101197.94;4956184;28;20027;-73
2021/03/24 09:07:26;;;;;;;3.65;2.30;;;;;;;6.39;60.76;101189.03;4899435;29;20530;-74
2021/03/24 09:10:20;;;;;;;3.35;2.30;;;;;;;6.78;58.25;101198.81;4955520;29;20372;-74
2021/03/24 09:13:23;;;;;;;7.30;2.90;;;;;;;6.92;63.66;101195.44;4955985;28;20037;-73
2021/03/24 09:16:36;;;;;;;3.85;1.83;;;;;;;6.07;54.96;101206.13;4955620;29;20439;-73
2021/03/24 09:19:41;;;;;;;10.02;2.60;;;;;;;5.99;59.24;101210.38;4942332;29;20031;-73
2021/03/24 09:22:58;;;;;;;2.92;2.00;;;;;;;5.62;57.27;101218.66;4940759;29;20047;-74
2021/03/24 09:25:47;;;;;;;3.38;2.10;;;;;;;5.48;62.54;101212.47;4956242;29;20197;-76
2021/03/24 09:28:51;;;;;;;5.05;3.15;;;;;;;6.18;66.83;101220.09;4955423;29;20467;-74
2021/03/24 09:32:04;;;;;;;5.70;3.10;;;;;;;5.87;70.15;101220.66;4955505;28;20042;-75
2021/03/24 09:35:08;;;;;;;10.32;3.15;;;;;;;5.55;76.11;101222.06;4941471;29;20019;-76
2021/03/24 09:38:11;;;;;;;4.72;2.47;;;;;;;5.47;73.15;101227.16;4955916;29;20460;-75
2021/03/24 09:41:18;;;;;;;6.72;3.05;;;;;;;4.89;78.30;101226.44;4955906;29;20058;-75
2021/03/24 09:44:10;;;;;;;6.93;4.28;;;;;;;5.20;81.29;101226.84;4956002;29;20035;-75
2021/03/24 09:46:57;;;;;;;7.05;4.55;;;;;;;5.74;84.50;101223.13;4955812;29;20486;-75
2021/03/24 09:49:46;;;;;;;6.93;3.10;;;;;;;5.82;79.24;101227.56;4954801;29;20434;-75
2021/03/24 09:52:44;;;;;;;8.15;3.70;;;;;;;5.55;78.49;101227.28;4940366;29;20031;-74
2021/03/24 09:55:33;;;;;;;6.93;3.60;;;;;;;5.32;80.41;101231.31;4941274;29;20086;-75
2021/03/24 09:58:22;;;;;;;5.53;3.38;;;;;;;5.75;78.03;101250.88;4955910;29;20106;-75
2021/03/24 10:01:17;;;;;;;6.05;2.70;;;;;;;5.47;72.95;101252.31;4956160;29;20038;-75
2021/03/24 10:04:15;;;;;;;5.25;2.85;;;;;;;5.40;71.71;101256.53;4955910;29;20035;-73
2021/03/24 10:07:18;;;;;;;5.88;2.42;;;;;;;5.12;76.77;101256.19;4956516;29;20019;-74
2021/03/24 10:10:19;;;;;;;4.25;2.30;;;;;;;5.15;84.45;101256.22;4941725;29;20027;-74
2021/03/24 10:13:30;;;;;;;2.95;2.03;;;;;;;3.79;100.00;101262.72;4941208;29;20031;-75
2021/03/24 10:16:24;;;;;;;4.50;2.70;;;;;;;3.21;100.00;101265.88;4928480;29;20042;-76
2021/03/24 10:19:32;;;;;;;5.40;3.58;;;;;;;2.86;100.00;101289.25;4943734;29;20106;-75
2021/03/24 10:22:24;;;;;;;6.70;4.90;;;;;;;2.74;100.00;101289.84;4946405;29;20053;-74
2021/03/24 10:25:20;;;;;;;8.68;5.55;;;;;;;2.78;100.00;101276.13;4944826;29;20350;-75
2021/03/24 10:28:21;;;;;;;12.10;6.35;;;;;;;3.50;100.00;101272.50;4958039;29;20019;-75
2021/03/24 10:31:45;;;;;;;8.40;6.10;;;;;;;3.43;100.00;101249.06;4944909;29;20447;-74
2021/03/24 10:34:47;;;;;;;8.52;5.50;;;;;;;3.91;100.00;101249.97;4945258;29;20054;-75
2021/03/24 10:37:45;;;;;;;6.25;4.28;;;;;;;3.89;100.00;101234.41;4945158;29;20464;-75
2021/03/24 10:40:37;;;;;;;6.35;4.65;;;;;;;3.18;100.00;101226.13;4958928;29;20051;-74
2021/03/24 10:43:52;;;;;;;7.70;5.28;;;;;;;4.04;100.00;101223.41;4958623;28;20398;-74
2021/03/24 10:46:47;;;;;;;6.47;4.55;;;;;;;4.12;100.00;101229.59;4958823;29;20037;-74
2021/03/24 10:49:50;;;;;;;7.07;4.50;;;;;;;4.26;100.00;101225.53;4959030;29;20381;-74
2021/03/24 10:52:42;;;;;;;5.13;3.90;;;;;;;4.51;100.00;101230.22;4958560;28;20112;-74
2021/03/24 10:55:30;;;;;;;5.78;3.38;;;;;;;5.21;100.00;101233.81;4959222;29;20316;-75
2021/03/24 10:58:37;;;;;;;5.75;3.67;;;;;;;5.75;100.00;101230.94;4958695;29;20031;-75
2021/03/24 11:02:14;;;;;;;7.82;3.90;;;;;;;5.14;100.00;101238.88;4959216;28;20035;-74
2021/03/24 11:05:15;;;;;;;10.30;3.45;;;;;;;5.57;100.00;101248.06;4923697;29;20456;-74
2021/03/24 11:08:13;;;;;;;6.90;4.50;;;;;;;5.59;100.00;101255.03;4944061;29;20452;-75
2021/03/24 11:11:18;;;;;;;7.97;4.88;;;;;;;4.70;100.00;101259.06;4943754;29;20077;-75
2021/03/24 11:14:15;;;;;;;8.93;4.68;;;;;;;4.54;100.00;101272.66;4944629;29;20038;-74
2021/03/24 11:17:17;;;;;;;7.00;4.25;;;;;;;5.52;100.00;101275.72;4944703;29;20058;-75
2021/03/24 11:20:32;;;;;;;7.80;4.80;;;;;;;4.97;100.00;101277.63;4957855;29;20035;-75
2021/03/24 11:23:32;;;;;;;12.82;5.43;;;;;;;5.74;100.00;101277.72;4942835;29;20052;-73
2021/03/24 11:26:18;;;;;;;6.80;4.25;;;;;;;5.40;100.00;101274.72;4942720;29;20023;-73
2021/03/24 11:29:08;;;;;;;8.02;5.30;;;;;;;5.99;100.00;101274.56;4957706;28;20046;-74
2021/03/24 11:32:01;;;;;;;6.30;4.50;;;;;;;6.01;100.00;101273.69;4942987;28;20031;-74
2021/03/24 11:34:57;;;;;;;7.25;4.30;;;;;;;5.64;100.00;101268.94;4943199;29;20070;-73
2021/03/24 11:37:46;;;;;;;10.35;6.38;;;;;;;5.88;100.00;101265.75;4957927;29;20054;-73
2021/03/24 11:40:43;;;;;;;8.80;4.97;;;;;;;6.04;100.00;101262.44;4957912;29;20028;-75
2021/03/24 11:43:35;;;;;;;7.22;4.70;;;;;;;5.51;100.00;101253.19;4943797;29;20480;-75
2021/03/24 11:46:30;;;;;;;8.93;4.72;;;;;;;5.69;100.00;101248.19;4957920;29;20125;-74
2021/03/24 11:49:45;;;;;;;7.20;5.47;;;;;;;5.50;100.00;101248.88;4943713;29;20033;-76
2021/03/24 11:52:39;;;;;;;11.18;7.97;;;;;;;6.55;100.00;101240.31;4944350;29;20118;-75
2021/03/24 11:55:37;;;;;;;5.88;3.72;;;;;;;6.84;100.00;101231.00;4944329;29;20023;-75
2021/03/24 11:58:32;;;;;;;6.95;3.95;;;;;;;5.68;100.00;101231.75;4957323;29;20034;-74
2021/03/24 12:01:30;;;;;;;5.07;4.05;;;;;;;6.91;100.00;101237.09;4957823;29;20083;-74
2021/03/24 12:04:55;;;;;;;6.45;3.40;;;;;;;6.32;100.00;101238.41;4957257;29;20039;-74
2021/03/24 12:07:55;;;;;;;5.53;3.40;;;;;;;6.11;100.00;101240.84;4957472;29;20027;-73
2021/03/24 12:10:55;;;;;;;5.90;3.60;;;;;;;6.65;100.00;101236.94;4942023;29;20109;-74
2021/03/24 12:13:41;;;;;;;6.05;3.80;;;;;;;7.21;100.00;101232.03;4943348;29;20370;-73
2021/03/24 12:16:27;;;;;;;6.05;4.45;;;;;;;7.81;100.00;101221.78;4957125;29;20038;-74
2021/03/24 12:19:28;;;;;;;6.30;4.53;;;;;;;8.19;100.00;101223.56;4956500;29;20114;-73
2021/03/24 12:22:29;;;;;;;6.90;4.82;;;;;;;7.95;100.00;101225.25;4943753;28;20372;-73
2021/03/24 12:25:30;;;;;;;6.38;4.07;;;;;;;8.16;100.00;101217.47;4942786;29;20023;-73
2021/03/24 12:28:36;;;;;;;6.55;3.97;;;;;;;7.02;100.00;101218.03;4943106;29;20024;-75
2021/03/24 12:31:23;;;;;;;4.88;3.80;;;;;;;7.53;100.00;101215.66;4943486;29;20027;-75
2021/03/24 12:34:17;;;;;;;5.25;3.88;;;;;;;7.01;100.00;101208.50;4956724;29;20058;-76
2021/03/24 12:37:06;;;;;;;5.30;3.65;;;;;;;7.42;100.00;101209.53;4943934;29;20038;-75
2021/03/24 12:40:06;;;;;;;5.75;3.85;;;;;;;6.80;100.00;101194.50;4942105;29;20035;-75
2021/03/24 12:43:20;;;;;;;8.90;4.18;;;;;;;6.53;100.00;101190.00;4942765;29;20062;-74
2021/03/24 12:46:19;;;;;;;7.22;4.63;;;;;;;6.99;100.00;101184.16;4943178;29;20404;-75
2021/03/24 12:49:17;;;;;;;9.77;4.63;;;;;;;6.53;100.00;101187.41;4956757;29;20101;-74
2021/03/24 12:52:25;;;;;;;7.35;4.72;;;;;;;7.58;100.00;101181.75;4956258;28;20027;-74
2021/03/24 12:55:12;;;;;;;7.78;4.18;;;;;;;7.58;100.00;101197.38;4937483;29;20098;-75
2021/03/24 12:58:23;;;;;;;7.35;3.78;;;;;;;7.26;100.00;101212.06;4942126;29;20334;-74
2021/03/24 13:01:36;;;;;;;8.73;4.90;;;;;;;7.10;100.00;101218.94;4956558;29;20111;-74
2021/03/24 13:04:46;;;;;;;7.85;3.90;;;;;;;6.25;100.00;101221.00;4956308;29;20468;-73
2021/03/24 13:07:32;;;;;;;4.68;3.45;;;;;;;5.70;100.00;101218.75;4956734;29;20031;-74
2021/03/24 13:10:36;;;;;;;4.93;3.45;;;;;;;6.01;100.00;101229.50;4956168;29;20053;-75
2021/03/24 13:13:40;;;;;;;5.18;3.75;;;;;;;5.68;100.00;101233.44;4956371;28;20357;-75
2021/03/24 13:16:32;;;;;;;13.32;8.38;;;;;;;5.92;100.00;101257.13;4955430;29;20097;-74
2021/03/24 13:19:27;;;;;;;7.53;4.95;;;;;;;5.09;100.00;101275.19;4956172;29;20035;-74
2021/03/24 13:22:38;;;;;;;16.05;11.18;;;;;;;3.74;100.00;101285.09;4941239;28;20059;-74
2021/03/24 13:25:53;;;;;;;26.63;20.40;;;;;;;3.53;100.00;101279.47;4956423;29;20030;-75
2021/03/24 13:28:45;;;;;;;15.02;9.95;;;;;;;3.50;100.00;101280.28;4941959;29;20106;-76
2021/03/24 13:31:31;;;;;;;8.02;6.53;;;;;;;3.49;100.00;101294.09;4956379;29;20034;-76
2021/03/24 13:34:26;;;;;;;13.57;9.90;;;;;;;3.79;100.00;101294.69;4940868;29;20380;-75
2021/03/24 13:37:24;;;;;;;11.50;8.65;;;;;;;4.06;100.00;101287.41;4941046;29;20031;-74
2021/03/24 13:40:20;;;;;;;14.80;11.88;;;;;;;4.44;100.00;101282.88;4955407;29;20027;-74
2021/03/24 13:43:13;;;;;;;9.95;7.72;;;;;;;4.98;100.00;101287.16;4955468;28;20031;-74
2021/03/24 13:46:14;;;;;;;16.23;10.30;;;;;;;5.16;100.00;101282.19;4940463;29;20027;-75
2021/03/24 13:49:06;;;;;;;13.98;9.88;;;;;;;5.05;100.00;101273.41;4955381;29;20028;-75
2021/03/24 13:52:04;;;;;;;12.57;8.32;;;;;;;4.87;100.00;101275.75;4941353;28;20060;-74
2021/03/24 13:54:55;;;;;;;15.77;11.60;;;;;;;5.50;100.00;101265.31;4958897;29;20042;-74
2021/03/24 13:57:57;;;;;;;19.05;12.88;;;;;;;4.95;100.00;101271.53;4945376;29;20317;-75
2021/03/24 14:01:15;;;;;;;11.70;8.43;;;;;;;4.77;100.00;101265.22;4945694;29;20110;-74
2021/03/24 14:04:04;;;;;;;13.05;8.88;;;;;;;5.06;100.00;101267.34;4945489;29;20039;-75
2021/03/24 14:06:50;;;;;;;8.73;6.10;;;;;;;5.22;100.00;101273.63;4959080;29;20031;-79
2021/03/24 14:09:39;;;;;;;7.28;6.35;;;;;;;5.21;100.00;101267.56;4959595;29;20034;-74
2021/03/24 14:12:46;;;;;;;11.68;6.30;;;;;;;4.99;100.00;101273.31;4958898;28;20034;-75
2021/03/24 14:15:50;;;;;;;16.88;11.05;;;;;;;4.73;100.00;101281.59;4959385;29;20431;-76
2021/03/24 14:18:36;;;;;;;19.08;13.50;;;;;;;5.19;100.00;101277.06;4944772;29;20039;-75
2021/03/24 14:21:43;;;;;;;35.55;22.73;;;;;;;5.56;100.00;101280.09;4946054;29;20062;-74
2021/03/24 14:25:04;;;;;;;30.95;19.67;;;;;;;4.76;100.00;101298.09;4944530;29;20027;-74
2021/03/24 14:28:01;;;;;;;28.38;18.17;;;;;;;5.10;100.00;101304.63;4924271;29;20375;-75
2021/03/24 14:31:10;;;;;;;45.58;30.02;;;;;;;5.28;100.00;101312.69;4959168;29;20038;-74
2021/03/24 14:34:21;;;;;;;35.60;26.38;;;;;;;5.03;100.00;101321.00;4944622;29;20027;-74
2021/03/24 14:37:31;;;;;;;22.00;15.75;;;;;;;4.83;100.00;101318.06;4945038;29;20037;-74
2021/03/24 14:40:57;;;;;;;17.10;12.25;;;;;;;4.80;100.00;101315.47;4947023;29;20408;-74
2021/03/24 14:44:40;;;;;;;9.90;5.93;;;;;;;3.52;100.00;101332.13;5394488;22;20084;-76
2021/03/24 14:47:47;;;;;;;6.97;4.82;;;;;;;2.86;100.00;101346.19;5008585;28;20094;-74
2021/03/24 14:50:53;;;;;;;12.48;8.52;;;;;;;2.83;100.00;101346.13;5036352;28;20033;-75
2021/03/24 14:53:42;;;;;;;9.68;7.15;;;;;;;3.27;100.00;101335.03;5053845;28;20437;-74
2021/03/24 14:56:41;;;;;;;8.13;6.22;;;;;;;3.29;100.00;101342.00;5041701;28;20472;-75
2021/03/24 14:59:33;;;;;;;7.60;5.60;;;;;;;3.50;100.00;101350.22;5041965;28;20025;-75
2021/03/24 15:02:28;;;;;;;5.80;4.70;;;;;;;2.73;100.00;101352.78;5057597;28;20058;-74
2021/03/24 15:05:50;;;;;;;6.90;5.13;;;;;;;2.88;100.00;101352.25;5041772;28;20024;-74
2021/03/24 15:08:49;;;;;;;9.73;5.88;;;;;;;3.16;100.00;101358.13;5039634;28;20129;-74
2021/03/24 15:11:43;;;;;;;8.20;5.55;;;;;;;3.27;100.00;101361.81;5055943;28;20025;-73
2021/03/24 15:14:58;;;;;;;6.50;4.70;;;;;;;2.76;100.00;101367.50;5040966;28;20029;-75
2021/03/24 15:18:09;;;;;;;9.07;6.68;;;;;;;2.86;100.00;101366.88;5041307;28;20056;-74
2021/03/24 15:21:17;;;;;;;8.95;6.22;;;;;;;3.27;100.00;101359.22;5040697;28;20021;-76
2021/03/24 15:24:23;;;;;;;10.50;7.50;;;;;;;3.14;100.00;101354.59;5041000;28;20029;-75
2021/03/24 15:27:44;;;;;;;10.48;7.80;;;;;;;3.36;100.00;101349.06;5055352;28;20017;-75
2021/03/24 15:30:42;;;;;;;8.88;6.95;;;;;;;3.12;100.00;101358.00;5055407;28;20053;-75
2021/03/24 15:33:49;;;;;;;10.25;6.95;;;;;;;3.47;100.00;101351.88;5055315;28;20025;-75
2021/03/24 15:37:10;;;;;;;11.13;8.35;;;;;;;3.66;100.00;101354.00;5055402;28;20120;-75
2021/03/24 15:40:25;;;;;;;13.98;9.77;;;;;;;3.71;100.00;101354.97;5052157;28;20107;-75
2021/03/24 15:43:23;;;;;;;14.10;10.02;;;;;;;3.36;100.00;101368.91;5041130;28;20052;-75
2021/03/24 15:46:18;;;;;;;13.65;10.20;;;;;;;3.34;100.00;101373.19;5054969;28;20098;-74
2021/03/24 15:49:06;;;;;;;16.15;11.52;;;;;;;3.63;100.00;101385.03;5054503;28;20035;-75
2021/03/24 15:52:03;;;;;;;21.80;12.88;;;;;;;3.31;100.00;101383.47;5054233;28;20112;-74
2021/03/24 15:55:22;;;;;;;18.38;13.07;;;;;;;3.77;100.00;101381.88;5040520;28;20056;-74
2021/03/24 15:58:34;;;;;;;15.07;10.82;;;;;;;3.77;100.00;101376.69;5023101;28;20037;-75
2021/03/24 16:01:27;;;;;;;14.77;10.77;;;;;;;3.62;100.00;101383.28;5030472;28;20060;-75
2021/03/24 16:04:31;;;;;;;12.95;9.85;;;;;;;3.70;100.00;101382.59;5054807;28;20037;-75
2021/03/24 16:07:22;;;;;;;15.77;11.35;;;;;;;3.79;100.00;101375.03;5055009;28;20057;-75
2021/03/24 16:10:32;;;;;;;24.27;15.88;;;;;;;3.76;100.00;101392.22;5054762;28;20036;-76
2021/03/24 16:13:30;;;;;;;19.85;14.80;;;;;;;3.92;100.00;101387.38;5040124;28;20016;-74
2021/03/24 16:16:35;;;;;;;17.70;12.48;;;;;;;3.64;100.00;101390.25;5054031;28;20119;-76
2021/03/24 16:19:51;;;;;;;18.45;13.10;;;;;;;4.04;100.00;101391.91;5054154;28;20104;-76
2021/03/24 16:22:59;;;;;;;18.48;13.63;;;;;;;3.34;100.00;101393.91;5030433;28;20101;-75
2021/03/24 16:25:51;;;;;;;20.50;12.88;;;;;;;3.47;100.00;101391.63;5054277;28;20063;-75
2021/03/24 16:29:00;;;;;;;22.35;14.70;;;;;;;3.65;100.00;101385.94;5053742;28;20021;-75
2021/03/24 16:31:45;;;;;;;25.98;15.60;;;;;;;3.85;100.00;101377.72;5054268;28;20078;-76
2021/03/24 16:35:13;;;;;;;23.73;16.30;;;;;;;3.78;100.00;101378.44;5039705;28;20110;-75
2021/03/24 16:38:02;;;;;;;19.55;14.23;;;;;;;3.79;100.00;101379.31;5053411;28;20029;-76
2021/03/24 16:41:09;;;;;;;16.73;12.60;;;;;;;3.72;100.00;101372.25;5053660;28;20453;-75
2021/03/24 16:44:24;;;;;;;16.20;10.98;;;;;;;3.97;100.00;101377.09;5054140;28;20041;-74
2021/03/24 16:47:46;;;;;;;19.80;12.68;;;;;;;3.96;100.00;101377.94;4980428;28;20132;-74
2021/03/24 16:50:46;;;;;;;18.25;12.38;;;;;;;3.73;100.00;101387.84;5053693;28;20070;-74
2021/03/24 16:53:43;;;;;;;17.00;11.75;;;;;;;3.90;100.00;101373.50;5039059;28;20025;-74
2021/03/24 16:57:01;;;;;;;13.45;9.95;;;;;;;3.97;100.00;101369.31;5053767;28;20036;-74
2021/03/24 16:59:51;;;;;;;21.55;14.45;;;;;;;3.82;100.00;101372.47;5053638;28;20037;-75
2021/03/24 17:03:03;;;;;;;29.48;17.73;;;;;;;3.96;100.00;101367.56;5053617;28;20103;-76
2021/03/24 17:06:01;;;;;;;17.58;11.93;;;;;;;3.91;100.00;101371.78;5054593;28;20450;-74
2021/03/24 17:08:49;;;;;;;14.95;10.15;;;;;;;3.71;100.00;101384.38;5053359;28;20028;-74
2021/03/24 17:11:46;;;;;;;17.13;10.93;;;;;;;4.11;100.00;101378.25;5053842;28;20461;-74
2021/03/24 17:15:04;;;;;;;21.40;13.38;;;;;;;4.00;100.00;101382.34;5052845;28;20465;-74
2021/03/24 17:18:13;;;;;;;20.48;12.23;;;;;;;3.66;100.00;101391.13;5053863;28;20033;-74
2021/03/24 17:21:04;;;;;;;17.58;11.65;;;;;;;3.90;100.00;101388.19;5053528;28;20025;-73
2021/03/24 17:24:10;;;;;;;17.27;12.65;;;;;;;4.12;100.00;101391.22;5053835;28;20408;-73
2021/03/24 17:27:19;;;;;;;15.77;10.95;;;;;;;4.06;100.00;101393.69;5053380;28;20055;-74
2021/03/24 17:30:05;;;;;;;12.32;9.75;;;;;;;4.40;100.00;101393.50;5038204;28;20366;-74
2021/03/24 17:33:03;;;;;;;14.18;10.10;;;;;;;4.02;100.00;101397.06;5052474;28;20359;-74
2021/03/24 17:35:59;;;;;;;16.40;11.10;;;;;;;3.97;100.00;101398.72;5053306;28;20346;-73
2021/03/24 17:38:45;;;;;;;16.83;11.48;;;;;;;4.06;100.00;101398.88;5053018;28;20450;-73
2021/03/24 17:41:43;;;;;;;16.10;10.75;;;;;;;4.37;100.00;101393.44;5053615;28;20041;-74
2021/03/24 17:44:40;;;;;;;20.40;13.88;;;;;;;4.44;100.00;101405.69;5039468;28;20072;-73
2021/03/24 17:47:45;;;;;;;19.08;13.35;;;;;;;4.16;100.00;101406.00;5055949;28;20083;-74
2021/03/24 17:50:36;;;;;;;15.15;11.05;;;;;;;3.98;100.00;101416.00;5054161;28;20029;-74
2021/03/24 17:53:33;;;;;;;18.58;12.20;;;;;;;4.30;100.00;101414.06;5054208;28;20418;-73
2021/03/24 17:56:41;;;;;;;15.63;11.57;;;;;;;4.11;100.00;101417.97;5057215;28;20049;-73
2021/03/24 17:59:46;;;;;;;15.98;10.70;;;;;;;4.52;100.00;101423.97;5053764;28;20029;-74
2021/03/24 18:02:43;;;;;;;16.30;10.27;;;;;;;3.94;100.00;101429.75;5053884;28;20445;-74
2021/03/24 18:05:33;;;;;;;18.95;12.73;;;;;;;4.37;100.00;101423.66;5052906;28;20105;-74
2021/03/24 18:08:29;;;;;;;22.20;15.50;;;;;;;4.24;100.00;101425.19;5038575;28;20037;-73
2021/03/24 18:11:24;;;;;;;22.45;15.85;;;;;;;4.18;100.00;101429.38;5038691;28;20028;-74
2021/03/24 18:14:26;;;;;;;21.02;14.07;;;;;;;4.29;100.00;101426.13;5051685;28;20025;-75
2021/03/24 18:17:27;;;;;;;20.17;13.80;;;;;;;4.03;100.00;101436.84;5038488;28;20108;-76
2021/03/24 18:20:20;;;;;;;18.45;13.07;;;;;;;3.93;100.00;101432.28;5039332;28;20074;-75